sensor_id;sensor_type;location;lat;lon;timestamp;P1;durP1;ratioP1;P2;durP2;ratioP2
52029;SDS011;38043;53.224;6.580;2023-07-29T00:00:42;12.52;;;5.85;;
52029;SDS011;38043;53.224;6.580;2023-07-29T00:03:08;8.43;;;6.07;;
52029;SDS011;38043;53.224;6.580;2023-07-29T00:05:34;12.88;;;6.82;;
52029;SDS011;38043;53.224;6.580;2023-07-29T00:08:00;10.55;;;6.20;;
52029;SDS011;38043;53.224;6.580;2023-07-29T00:10:26;8.85;;;6.43;;
52029;SDS011;38043;53.224;6.580;2023-07-29T00:12:52;11.20;;;6.30;;
52029;SDS011;38043;53.224;6.580;2023-07-29T00:15:18;9.10;;;6.30;;
52029;SDS011;38043;53.224;6.580;2023-07-29T00:17:43;9.77;;;6.45;;
52029;SDS011;38043;53.224;6.580;2023-07-29T00:20:09;8.80;;;6.68;;
52029;SDS011;38043;53.224;6.580;2023-07-29T00:22:35;12.13;;;6.32;;
52029;SDS011;38043;53.224;6.580;2023-07-29T00:25:01;9.63;;;6.38;;
52029;SDS011;38043;53.224;6.580;2023-07-29T00:27:26;9.60;;;6.40;;
52029;SDS011;38043;53.224;6.580;2023-07-29T00:29:52;9.05;;;6.32;;
52029;SDS011;38043;53.224;6.580;2023-07-29T00:32:18;9.45;;;6.90;;
52029;SDS011;38043;53.224;6.580;2023-07-29T00:34:43;9.80;;;6.43;;
52029;SDS011;38043;53.224;6.580;2023-07-29T00:37:09;9.15;;;7.07;;
52029;SDS011;38043;53.224;6.580;2023-07-29T00:39:35;10.00;;;6.53;;
52029;SDS011;38043;53.224;6.580;2023-07-29T00:42:02;9.35;;;6.70;;
52029;SDS011;38043;53.224;6.580;2023-07-29T00:44:28;10.30;;;7.30;;
52029;SDS011;38043;53.224;6.580;2023-07-29T00:49:22;8.82;;;6.63;;
52029;SDS011;38043;53.224;6.580;2023-07-29T00:51:48;9.48;;;7.07;;
52029;SDS011;38043;53.224;6.580;2023-07-29T00:54:14;11.50;;;7.82;;
52029;SDS011;38043;53.224;6.580;2023-07-29T00:56:40;8.40;;;6.53;;
52029;SDS011;38043;53.224;6.580;2023-07-29T00:59:05;8.60;;;6.60;;
52029;SDS011;38043;53.224;6.580;2023-07-29T01:01:31;7.80;;;6.53;;
52029;SDS011;38043;53.224;6.580;2023-07-29T01:03:57;10.27;;;8.07;;
52029;SDS011;38043;53.224;6.580;2023-07-29T01:09:14;9.30;;;7.00;;
52029;SDS011;38043;53.224;6.580;2023-07-29T01:12:06;11.88;;;7.90;;
52029;SDS011;38043;53.224;6.580;2023-07-29T01:14:55;9.50;;;7.10;;
52029;SDS011;38043;53.224;6.580;2023-07-29T01:20:20;9.70;;;7.60;;
52029;SDS011;38043;53.224;6.580;2023-07-29T01:22:49;10.18;;;7.50;;
52029;SDS011;38043;53.224;6.580;2023-07-29T01:25:15;11.15;;;7.28;;
52029;SDS011;38043;53.224;6.580;2023-07-29T01:27:44;8.07;;;7.20;;
52029;SDS011;38043;53.224;6.580;2023-07-29T01:30:11;10.43;;;7.40;;
52029;SDS011;38043;53.224;6.580;2023-07-29T01:35:36;10.40;;;7.93;;
52029;SDS011;38043;53.224;6.580;2023-07-29T01:38:13;12.52;;;7.22;;
52029;SDS011;38043;53.224;6.580;2023-07-29T01:40:43;11.50;;;7.60;;
52029;SDS011;38043;53.224;6.580;2023-07-29T01:43:10;11.55;;;7.90;;
52029;SDS011;38043;53.224;6.580;2023-07-29T01:45:36;11.98;;;7.60;;
52029;SDS011;38043;53.224;6.580;2023-07-29T01:48:06;12.32;;;8.23;;
52029;SDS011;38043;53.224;6.580;2023-07-29T01:50:32;11.35;;;7.70;;
52029;SDS011;38043;53.224;6.580;2023-07-29T01:52:58;10.20;;;7.90;;
52029;SDS011;38043;53.224;6.580;2023-07-29T01:55:24;12.63;;;8.27;;
52029;SDS011;38043;53.224;6.580;2023-07-29T01:57:50;9.25;;;7.68;;
52029;SDS011;38043;53.224;6.580;2023-07-29T02:00:17;12.23;;;7.93;;
52029;SDS011;38043;53.224;6.580;2023-07-29T02:02:43;10.73;;;8.33;;
52029;SDS011;38043;53.224;6.580;2023-07-29T02:05:09;11.38;;;8.68;;
52029;SDS011;38043;53.224;6.580;2023-07-29T02:07:35;10.25;;;8.23;;
52029;SDS011;38043;53.224;6.580;2023-07-29T02:10:00;10.43;;;7.80;;
52029;SDS011;38043;53.224;6.580;2023-07-29T02:12:26;12.88;;;8.18;;
52029;SDS011;38043;53.224;6.580;2023-07-29T02:14:52;10.23;;;8.23;;
52029;SDS011;38043;53.224;6.580;2023-07-29T02:17:17;13.95;;;8.13;;
52029;SDS011;38043;53.224;6.580;2023-07-29T02:19:43;9.77;;;8.15;;
52029;SDS011;38043;53.224;6.580;2023-07-29T02:22:10;12.23;;;7.90;;
52029;SDS011;38043;53.224;6.580;2023-07-29T02:24:39;12.02;;;8.57;;
52029;SDS011;38043;53.224;6.580;2023-07-29T02:27:05;11.35;;;8.10;;
52029;SDS011;38043;53.224;6.580;2023-07-29T02:29:31;13.65;;;8.10;;
52029;SDS011;38043;53.224;6.580;2023-07-29T02:31:58;10.07;;;7.53;;
52029;SDS011;38043;53.224;6.580;2023-07-29T02:34:24;13.63;;;8.68;;
52029;SDS011;38043;53.224;6.580;2023-07-29T02:36:50;10.80;;;7.88;;
52029;SDS011;38043;53.224;6.580;2023-07-29T02:39:15;11.77;;;8.52;;
52029;SDS011;38043;53.224;6.580;2023-07-29T02:41:41;9.77;;;8.00;;
52029;SDS011;38043;53.224;6.580;2023-07-29T02:44:07;12.52;;;7.88;;
52029;SDS011;38043;53.224;6.580;2023-07-29T02:46:33;11.77;;;8.27;;
52029;SDS011;38043;53.224;6.580;2023-07-29T02:48:58;10.10;;;8.05;;
52029;SDS011;38043;53.224;6.580;2023-07-29T02:51:24;11.25;;;7.88;;
52029;SDS011;38043;53.224;6.580;2023-07-29T02:53:50;11.27;;;7.97;;
52029;SDS011;38043;53.224;6.580;2023-07-29T02:56:16;15.45;;;7.88;;
52029;SDS011;38043;53.224;6.580;2023-07-29T02:58:41;13.18;;;8.05;;
52029;SDS011;38043;53.224;6.580;2023-07-29T03:01:07;11.40;;;7.75;;
52029;SDS011;38043;53.224;6.580;2023-07-29T03:03:33;17.95;;;9.13;;
52029;SDS011;38043;53.224;6.580;2023-07-29T03:08:29;11.27;;;8.18;;
52029;SDS011;38043;53.224;6.580;2023-07-29T03:10:55;12.55;;;8.32;;
52029;SDS011;38043;53.224;6.580;2023-07-29T03:13:21;12.27;;;8.60;;
52029;SDS011;38043;53.224;6.580;2023-07-29T03:15:47;11.70;;;8.02;;
52029;SDS011;38043;53.224;6.580;2023-07-29T03:18:12;14.93;;;8.48;;
52029;SDS011;38043;53.224;6.580;2023-07-29T03:20:38;13.82;;;8.57;;
52029;SDS011;38043;53.224;6.580;2023-07-29T03:23:04;14.48;;;8.45;;
52029;SDS011;38043;53.224;6.580;2023-07-29T03:25:29;11.05;;;8.20;;
52029;SDS011;38043;53.224;6.580;2023-07-29T03:27:55;11.38;;;7.90;;
52029;SDS011;38043;53.224;6.580;2023-07-29T03:30:21;13.68;;;7.80;;
52029;SDS011;38043;53.224;6.580;2023-07-29T03:32:47;12.15;;;8.10;;
52029;SDS011;38043;53.224;6.580;2023-07-29T03:35:13;12.18;;;8.02;;
52029;SDS011;38043;53.224;6.580;2023-07-29T03:37:39;11.65;;;8.18;;
52029;SDS011;38043;53.224;6.580;2023-07-29T03:40:08;11.98;;;7.75;;
52029;SDS011;38043;53.224;6.580;2023-07-29T03:42:35;14.95;;;7.90;;
52029;SDS011;38043;53.224;6.580;2023-07-29T03:45:00;10.73;;;7.85;;
52029;SDS011;38043;53.224;6.580;2023-07-29T03:47:26;10.00;;;7.50;;
52029;SDS011;38043;53.224;6.580;2023-07-29T03:49:52;12.32;;;7.20;;
52029;SDS011;38043;53.224;6.580;2023-07-29T03:52:18;11.50;;;8.15;;
52029;SDS011;38043;53.224;6.580;2023-07-29T03:54:43;11.07;;;7.00;;
52029;SDS011;38043;53.224;6.580;2023-07-29T03:57:09;13.77;;;7.35;;
52029;SDS011;38043;53.224;6.580;2023-07-29T03:59:35;16.27;;;8.20;;
52029;SDS011;38043;53.224;6.580;2023-07-29T04:02:00;12.25;;;7.32;;
52029;SDS011;38043;53.224;6.580;2023-07-29T04:04:26;11.18;;;7.28;;
52029;SDS011;38043;53.224;6.580;2023-07-29T04:06:52;10.82;;;7.35;;
52029;SDS011;38043;53.224;6.580;2023-07-29T04:09:17;18.08;;;7.68;;
52029;SDS011;38043;53.224;6.580;2023-07-29T04:11:43;9.65;;;6.97;;
52029;SDS011;38043;53.224;6.580;2023-07-29T04:14:09;10.27;;;6.78;;
52029;SDS011;38043;53.224;6.580;2023-07-29T04:16:34;12.60;;;7.20;;
52029;SDS011;38043;53.224;6.580;2023-07-29T04:19:00;14.10;;;6.85;;
52029;SDS011;38043;53.224;6.580;2023-07-29T04:21:26;9.27;;;6.80;;
52029;SDS011;38043;53.224;6.580;2023-07-29T04:23:51;11.20;;;7.38;;
52029;SDS011;38043;53.224;6.580;2023-07-29T04:26:17;10.75;;;6.80;;
52029;SDS011;38043;53.224;6.580;2023-07-29T04:28:42;14.43;;;7.07;;
52029;SDS011;38043;53.224;6.580;2023-07-29T04:31:08;9.75;;;6.53;;
52029;SDS011;38043;53.224;6.580;2023-07-29T04:33:34;10.02;;;6.40;;
52029;SDS011;38043;53.224;6.580;2023-07-29T04:35:59;11.18;;;7.05;;
52029;SDS011;38043;53.224;6.580;2023-07-29T04:38:29;10.80;;;6.85;;
52029;SDS011;38043;53.224;6.580;2023-07-29T04:40:57;10.43;;;6.43;;
52029;SDS011;38043;53.224;6.580;2023-07-29T04:43:26;11.32;;;6.70;;
52029;SDS011;38043;53.224;6.580;2023-07-29T04:45:56;13.07;;;6.47;;
52029;SDS011;38043;53.224;6.580;2023-07-29T04:48:22;11.25;;;6.20;;
52029;SDS011;38043;53.224;6.580;2023-07-29T04:50:47;10.02;;;5.70;;
52029;SDS011;38043;53.224;6.580;2023-07-29T04:53:13;34.60;;;6.68;;
52029;SDS011;38043;53.224;6.580;2023-07-29T04:55:41;11.38;;;5.32;;
52029;SDS011;38043;53.224;6.580;2023-07-29T04:58:07;8.25;;;4.85;;
52029;SDS011;38043;53.224;6.580;2023-07-29T05:00:33;7.28;;;4.38;;
52029;SDS011;38043;53.224;6.580;2023-07-29T05:02:59;8.00;;;4.68;;
52029;SDS011;38043;53.224;6.580;2023-07-29T05:05:26;9.95;;;4.35;;
52029;SDS011;38043;53.224;6.580;2023-07-29T05:07:52;7.57;;;4.22;;
52029;SDS011;38043;53.224;6.580;2023-07-29T05:10:17;5.97;;;4.10;;
52029;SDS011;38043;53.224;6.580;2023-07-29T05:12:43;7.10;;;4.13;;
52029;SDS011;38043;53.224;6.580;2023-07-29T05:15:09;8.27;;;4.70;;
52029;SDS011;38043;53.224;6.580;2023-07-29T05:17:35;7.10;;;3.75;;
52029;SDS011;38043;53.224;6.580;2023-07-29T05:20:01;11.10;;;4.15;;
52029;SDS011;38043;53.224;6.580;2023-07-29T05:22:26;7.78;;;3.80;;
52029;SDS011;38043;53.224;6.580;2023-07-29T05:24:52;8.15;;;4.18;;
52029;SDS011;38043;53.224;6.580;2023-07-29T05:27:17;7.55;;;3.47;;
52029;SDS011;38043;53.224;6.580;2023-07-29T05:29:43;6.15;;;3.30;;
52029;SDS011;38043;53.224;6.580;2023-07-29T05:32:09;8.43;;;3.67;;
52029;SDS011;38043;53.224;6.580;2023-07-29T05:34:34;6.82;;;3.67;;
52029;SDS011;38043;53.224;6.580;2023-07-29T05:37:00;8.82;;;4.00;;
52029;SDS011;38043;53.224;6.580;2023-07-29T05:39:26;5.70;;;3.17;;
52029;SDS011;38043;53.224;6.580;2023-07-29T05:41:51;9.88;;;3.20;;
52029;SDS011;38043;53.224;6.580;2023-07-29T05:44:17;8.07;;;3.38;;
52029;SDS011;38043;53.224;6.580;2023-07-29T05:46:42;8.32;;;3.20;;
52029;SDS011;38043;53.224;6.580;2023-07-29T05:49:08;8.13;;;3.08;;
52029;SDS011;38043;53.224;6.580;2023-07-29T05:51:34;7.28;;;3.42;;
52029;SDS011;38043;53.224;6.580;2023-07-29T05:53:59;7.20;;;3.60;;
52029;SDS011;38043;53.224;6.580;2023-07-29T05:56:25;7.20;;;3.55;;
52029;SDS011;38043;53.224;6.580;2023-07-29T05:58:50;7.35;;;3.80;;
52029;SDS011;38043;53.224;6.580;2023-07-29T06:01:16;11.85;;;4.00;;
52029;SDS011;38043;53.224;6.580;2023-07-29T06:03:42;8.02;;;4.15;;
52029;SDS011;38043;53.224;6.580;2023-07-29T06:06:08;6.13;;;3.70;;
52029;SDS011;38043;53.224;6.580;2023-07-29T06:08:33;8.00;;;3.15;;
52029;SDS011;38043;53.224;6.580;2023-07-29T06:10:59;11.73;;;3.47;;
52029;SDS011;38043;53.224;6.580;2023-07-29T06:13:25;8.02;;;3.60;;
52029;SDS011;38043;53.224;6.580;2023-07-29T06:15:51;9.23;;;3.95;;
52029;SDS011;38043;53.224;6.580;2023-07-29T06:18:16;5.80;;;3.70;;
52029;SDS011;38043;53.224;6.580;2023-07-29T06:20:42;6.85;;;3.70;;
52029;SDS011;38043;53.224;6.580;2023-07-29T06:23:08;6.95;;;3.70;;
52029;SDS011;38043;53.224;6.580;2023-07-29T06:25:34;9.82;;;4.13;;
52029;SDS011;38043;53.224;6.580;2023-07-29T06:27:59;8.85;;;3.60;;
52029;SDS011;38043;53.224;6.580;2023-07-29T06:30:25;6.50;;;3.40;;
52029;SDS011;38043;53.224;6.580;2023-07-29T06:32:51;6.78;;;3.55;;
52029;SDS011;38043;53.224;6.580;2023-07-29T06:35:16;4.72;;;3.42;;
52029;SDS011;38043;53.224;6.580;2023-07-29T06:37:42;7.13;;;3.90;;
52029;SDS011;38043;53.224;6.580;2023-07-29T06:40:08;6.80;;;3.13;;
52029;SDS011;38043;53.224;6.580;2023-07-29T06:42:34;10.70;;;3.95;;
52029;SDS011;38043;53.224;6.580;2023-07-29T06:44:59;12.82;;;4.38;;
52029;SDS011;38043;53.224;6.580;2023-07-29T06:47:25;9.95;;;3.40;;
52029;SDS011;38043;53.224;6.580;2023-07-29T06:49:51;7.65;;;3.85;;
52029;SDS011;38043;53.224;6.580;2023-07-29T06:52:18;12.20;;;4.20;;
52029;SDS011;38043;53.224;6.580;2023-07-29T06:54:44;8.63;;;3.40;;
52029;SDS011;38043;53.224;6.580;2023-07-29T06:57:10;6.95;;;3.53;;
52029;SDS011;38043;53.224;6.580;2023-07-29T06:59:35;8.30;;;4.25;;
52029;SDS011;38043;53.224;6.580;2023-07-29T07:02:01;7.00;;;3.60;;
52029;SDS011;38043;53.224;6.580;2023-07-29T07:04:27;8.00;;;3.60;;
52029;SDS011;38043;53.224;6.580;2023-07-29T07:06:52;10.00;;;4.07;;
52029;SDS011;38043;53.224;6.580;2023-07-29T07:09:19;10.45;;;3.85;;
52029;SDS011;38043;53.224;6.580;2023-07-29T07:11:44;12.45;;;3.58;;
52029;SDS011;38043;53.224;6.580;2023-07-29T07:14:10;15.05;;;5.30;;
52029;SDS011;38043;53.224;6.580;2023-07-29T07:16:35;10.00;;;4.22;;
52029;SDS011;38043;53.224;6.580;2023-07-29T07:19:02;12.43;;;4.43;;
52029;SDS011;38043;53.224;6.580;2023-07-29T07:21:28;13.15;;;3.65;;
52029;SDS011;38043;53.224;6.580;2023-07-29T07:23:54;11.15;;;3.90;;
52029;SDS011;38043;53.224;6.580;2023-07-29T07:26:19;8.60;;;3.90;;
52029;SDS011;38043;53.224;6.580;2023-07-29T07:28:45;8.57;;;4.00;;
52029;SDS011;38043;53.224;6.580;2023-07-29T07:31:10;11.77;;;4.70;;
52029;SDS011;38043;53.224;6.580;2023-07-29T07:33:36;9.18;;;4.63;;
52029;SDS011;38043;53.224;6.580;2023-07-29T07:36:02;11.50;;;5.15;;
52029;SDS011;38043;53.224;6.580;2023-07-29T07:38:30;12.55;;;4.30;;
52029;SDS011;38043;53.224;6.580;2023-07-29T07:40:56;10.45;;;3.72;;
52029;SDS011;38043;53.224;6.580;2023-07-29T07:43:22;8.23;;;4.00;;
52029;SDS011;38043;53.224;6.580;2023-07-29T07:45:48;10.57;;;3.90;;
52029;SDS011;38043;53.224;6.580;2023-07-29T07:48:14;11.45;;;4.25;;
52029;SDS011;38043;53.224;6.580;2023-07-29T07:50:42;11.25;;;3.70;;
52029;SDS011;38043;53.224;6.580;2023-07-29T07:53:08;11.88;;;4.90;;
52029;SDS011;38043;53.224;6.580;2023-07-29T07:55:33;8.85;;;4.07;;
52029;SDS011;38043;53.224;6.580;2023-07-29T07:57:59;12.02;;;4.38;;
52029;SDS011;38043;53.224;6.580;2023-07-29T08:00:25;9.48;;;3.80;;
52029;SDS011;38043;53.224;6.580;2023-07-29T08:02:50;7.15;;;3.67;;
52029;SDS011;38043;53.224;6.580;2023-07-29T08:05:16;9.85;;;4.00;;
52029;SDS011;38043;53.224;6.580;2023-07-29T08:07:43;8.05;;;3.38;;
52029;SDS011;38043;53.224;6.580;2023-07-29T08:10:09;12.27;;;3.70;;
52029;SDS011;38043;53.224;6.580;2023-07-29T08:12:37;9.60;;;3.97;;
52029;SDS011;38043;53.224;6.580;2023-07-29T08:15:03;14.60;;;3.88;;
52029;SDS011;38043;53.224;6.580;2023-07-29T08:17:30;5.22;;;3.05;;
52029;SDS011;38043;53.224;6.580;2023-07-29T08:19:55;9.85;;;3.10;;
52029;SDS011;38043;53.224;6.580;2023-07-29T08:22:21;6.63;;;3.33;;
52029;SDS011;38043;53.224;6.580;2023-07-29T08:24:46;7.18;;;3.90;;
52029;SDS011;38043;53.224;6.580;2023-07-29T08:27:12;13.35;;;3.75;;
52029;SDS011;38043;53.224;6.580;2023-07-29T08:29:38;17.00;;;4.35;;
52029;SDS011;38043;53.224;6.580;2023-07-29T08:32:04;8.00;;;3.30;;
52029;SDS011;38043;53.224;6.580;2023-07-29T08:34:30;7.70;;;3.58;;
52029;SDS011;38043;53.224;6.580;2023-07-29T08:36:55;7.65;;;3.15;;
52029;SDS011;38043;53.224;6.580;2023-07-29T08:39:21;8.73;;;2.70;;
52029;SDS011;38043;53.224;6.580;2023-07-29T08:44:43;8.82;;;3.10;;
52029;SDS011;38043;53.224;6.580;2023-07-29T08:47:10;5.90;;;2.75;;
52029;SDS011;38043;53.224;6.580;2023-07-29T08:49:38;6.38;;;2.80;;
52029;SDS011;38043;53.224;6.580;2023-07-29T08:52:05;6.32;;;2.55;;
52029;SDS011;38043;53.224;6.580;2023-07-29T08:54:32;6.30;;;2.80;;
52029;SDS011;38043;53.224;6.580;2023-07-29T08:56:58;5.97;;;2.65;;
52029;SDS011;38043;53.224;6.580;2023-07-29T08:59:25;5.72;;;2.50;;
52029;SDS011;38043;53.224;6.580;2023-07-29T09:01:53;7.82;;;2.50;;
52029;SDS011;38043;53.224;6.580;2023-07-29T09:04:22;7.45;;;2.28;;
52029;SDS011;38043;53.224;6.580;2023-07-29T09:06:49;9.18;;;2.70;;
52029;SDS011;38043;53.224;6.580;2023-07-29T09:11:42;7.57;;;2.45;;
52029;SDS011;38043;53.224;6.580;2023-07-29T09:14:09;6.47;;;2.35;;
52029;SDS011;38043;53.224;6.580;2023-07-29T09:16:35;4.03;;;2.10;;
52029;SDS011;38043;53.224;6.580;2023-07-29T09:19:01;7.15;;;2.05;;
52029;SDS011;38043;53.224;6.580;2023-07-29T09:21:28;4.35;;;2.00;;
52029;SDS011;38043;53.224;6.580;2023-07-29T09:23:56;6.43;;;2.33;;
52029;SDS011;38043;53.224;6.580;2023-07-29T09:26:27;5.80;;;2.40;;
52029;SDS011;38043;53.224;6.580;2023-07-29T09:28:57;8.98;;;2.50;;
52029;SDS011;38043;53.224;6.580;2023-07-29T09:31:27;5.15;;;2.30;;
52029;SDS011;38043;53.224;6.580;2023-07-29T09:34:01;5.50;;;2.10;;
52029;SDS011;38043;53.224;6.580;2023-07-29T09:36:30;7.18;;;2.20;;
52029;SDS011;38043;53.224;6.580;2023-07-29T09:38:57;6.13;;;2.25;;
52029;SDS011;38043;53.224;6.580;2023-07-29T09:41:24;6.18;;;2.13;;
52029;SDS011;38043;53.224;6.580;2023-07-29T09:43:56;2.92;;;1.63;;
52029;SDS011;38043;53.224;6.580;2023-07-29T09:46:23;24.98;;;2.92;;
52029;SDS011;38043;53.224;6.580;2023-07-29T09:48:52;5.38;;;2.00;;
52029;SDS011;38043;53.224;6.580;2023-07-29T09:51:21;3.95;;;1.70;;
52029;SDS011;38043;53.224;6.580;2023-07-29T09:53:47;5.53;;;1.90;;
52029;SDS011;38043;53.224;6.580;2023-07-29T09:56:15;3.75;;;1.63;;
52029;SDS011;38043;53.224;6.580;2023-07-29T09:58:42;4.90;;;1.95;;
52029;SDS011;38043;53.224;6.580;2023-07-29T10:01:12;5.28;;;1.95;;
52029;SDS011;38043;53.224;6.580;2023-07-29T10:03:39;8.63;;;2.00;;
52029;SDS011;38043;53.224;6.580;2023-07-29T10:06:06;4.43;;;1.60;;
52029;SDS011;38043;53.224;6.580;2023-07-29T10:08:32;5.90;;;2.33;;
52029;SDS011;38043;53.224;6.580;2023-07-29T10:11:04;5.35;;;1.70;;
52029;SDS011;38043;53.224;6.580;2023-07-29T10:13:31;7.78;;;2.45;;
52029;SDS011;38043;53.224;6.580;2023-07-29T10:15:58;7.95;;;2.13;;
52029;SDS011;38043;53.224;6.580;2023-07-29T10:18:27;7.28;;;1.92;;
52029;SDS011;38043;53.224;6.580;2023-07-29T10:20:53;5.40;;;2.03;;
52029;SDS011;38043;53.224;6.580;2023-07-29T10:23:21;8.55;;;2.00;;
52029;SDS011;38043;53.224;6.580;2023-07-29T10:25:57;6.20;;;1.80;;
52029;SDS011;38043;53.224;6.580;2023-07-29T10:28:30;5.55;;;1.92;;
52029;SDS011;38043;53.224;6.580;2023-07-29T10:30:57;12.35;;;1.88;;
52029;SDS011;38043;53.224;6.580;2023-07-29T10:33:24;6.97;;;2.30;;
52029;SDS011;38043;53.224;6.580;2023-07-29T10:35:50;5.32;;;1.80;;
52029;SDS011;38043;53.224;6.580;2023-07-29T10:38:17;6.30;;;1.70;;
52029;SDS011;38043;53.224;6.580;2023-07-29T10:40:47;5.80;;;1.95;;
52029;SDS011;38043;53.224;6.580;2023-07-29T10:43:25;4.13;;;1.73;;
52029;SDS011;38043;53.224;6.580;2023-07-29T10:45:55;3.80;;;1.80;;
52029;SDS011;38043;53.224;6.580;2023-07-29T10:51:24;4.85;;;1.77;;
52029;SDS011;38043;53.224;6.580;2023-07-29T10:54:01;7.80;;;2.63;;
52029;SDS011;38043;53.224;6.580;2023-07-29T10:56:32;4.18;;;1.52;;
52029;SDS011;38043;53.224;6.580;2023-07-29T10:59:02;5.00;;;1.60;;
52029;SDS011;38043;53.224;6.580;2023-07-29T11:01:52;5.88;;;1.90;;
52029;SDS011;38043;53.224;6.580;2023-07-29T11:04:27;4.22;;;1.67;;
52029;SDS011;38043;53.224;6.580;2023-07-29T11:09:42;5.55;;;2.05;;
52029;SDS011;38043;53.224;6.580;2023-07-29T11:15:12;5.50;;;1.90;;
52029;SDS011;38043;53.224;6.580;2023-07-29T11:20:26;7.03;;;2.15;;
52029;SDS011;38043;53.224;6.580;2023-07-29T11:22:53;5.07;;;1.60;;
52029;SDS011;38043;53.224;6.580;2023-07-29T11:25:20;4.47;;;1.70;;
52029;SDS011;38043;53.224;6.580;2023-07-29T11:30:14;4.45;;;1.60;;
52029;SDS011;38043;53.224;6.580;2023-07-29T11:32:41;2.03;;;1.10;;
52029;SDS011;38043;53.224;6.580;2023-07-29T11:35:10;6.45;;;1.70;;
52029;SDS011;38043;53.224;6.580;2023-07-29T11:37:38;4.63;;;2.05;;
52029;SDS011;38043;53.224;6.580;2023-07-29T11:40:04;6.22;;;1.90;;
52029;SDS011;38043;53.224;6.580;2023-07-29T11:42:35;5.82;;;2.65;;
52029;SDS011;38043;53.224;6.580;2023-07-29T11:45:02;3.70;;;1.60;;
52029;SDS011;38043;53.224;6.580;2023-07-29T11:47:30;5.72;;;1.90;;
52029;SDS011;38043;53.224;6.580;2023-07-29T11:49:58;4.53;;;1.70;;
52029;SDS011;38043;53.224;6.580;2023-07-29T11:52:25;8.75;;;2.25;;
52029;SDS011;38043;53.224;6.580;2023-07-29T11:54:52;3.77;;;2.13;;
52029;SDS011;38043;53.224;6.580;2023-07-29T11:57:18;4.95;;;1.95;;
52029;SDS011;38043;53.224;6.580;2023-07-29T11:59:44;5.60;;;1.98;;
52029;SDS011;38043;53.224;6.580;2023-07-29T12:02:13;6.30;;;2.08;;
52029;SDS011;38043;53.224;6.580;2023-07-29T12:04:41;3.38;;;1.80;;
52029;SDS011;38043;53.224;6.580;2023-07-29T12:07:08;8.93;;;2.40;;
52029;SDS011;38043;53.224;6.580;2023-07-29T12:09:35;6.80;;;2.55;;
52029;SDS011;38043;53.224;6.580;2023-07-29T12:12:02;5.95;;;2.28;;
52029;SDS011;38043;53.224;6.580;2023-07-29T12:14:31;3.53;;;2.15;;
52029;SDS011;38043;53.224;6.580;2023-07-29T12:17:04;4.57;;;2.28;;
52029;SDS011;38043;53.224;6.580;2023-07-29T12:19:35;6.70;;;2.47;;
52029;SDS011;38043;53.224;6.580;2023-07-29T12:22:02;5.85;;;2.15;;
52029;SDS011;38043;53.224;6.580;2023-07-29T12:26:56;3.33;;;1.90;;
52029;SDS011;38043;53.224;6.580;2023-07-29T12:29:22;7.30;;;2.60;;
52029;SDS011;38043;53.224;6.580;2023-07-29T12:31:47;5.68;;;2.20;;
52029;SDS011;38043;53.224;6.580;2023-07-29T12:34:20;4.05;;;1.90;;
52029;SDS011;38043;53.224;6.580;2023-07-29T12:36:47;8.20;;;1.92;;
52029;SDS011;38043;53.224;6.580;2023-07-29T12:41:57;4.25;;;2.25;;
52029;SDS011;38043;53.224;6.580;2023-07-29T12:44:27;8.52;;;2.70;;
52029;SDS011;38043;53.224;6.580;2023-07-29T12:46:57;5.88;;;1.90;;
52029;SDS011;38043;53.224;6.580;2023-07-29T12:49:22;5.63;;;2.25;;
52029;SDS011;38043;53.224;6.580;2023-07-29T12:51:48;4.57;;;2.22;;
52029;SDS011;38043;53.224;6.580;2023-07-29T12:54:14;5.80;;;2.17;;
52029;SDS011;38043;53.224;6.580;2023-07-29T12:56:39;6.45;;;2.17;;
52029;SDS011;38043;53.224;6.580;2023-07-29T12:59:05;4.63;;;1.88;;
52029;SDS011;38043;53.224;6.580;2023-07-29T13:01:31;4.13;;;2.05;;
52029;SDS011;38043;53.224;6.580;2023-07-29T13:03:56;5.72;;;1.55;;
52029;SDS011;38043;53.224;6.580;2023-07-29T13:06:22;4.75;;;1.90;;
52029;SDS011;38043;53.224;6.580;2023-07-29T13:08:48;3.63;;;1.77;;
52029;SDS011;38043;53.224;6.580;2023-07-29T13:11:14;6.45;;;2.22;;
52029;SDS011;38043;53.224;6.580;2023-07-29T13:13:40;8.18;;;2.13;;
52029;SDS011;38043;53.224;6.580;2023-07-29T13:16:06;6.57;;;2.50;;
52029;SDS011;38043;53.224;6.580;2023-07-29T13:18:35;5.05;;;1.83;;
52029;SDS011;38043;53.224;6.580;2023-07-29T13:21:01;6.57;;;2.30;;
52029;SDS011;38043;53.224;6.580;2023-07-29T13:23:26;5.57;;;1.85;;
52029;SDS011;38043;53.224;6.580;2023-07-29T13:25:56;6.15;;;2.08;;
52029;SDS011;38043;53.224;6.580;2023-07-29T13:28:22;7.18;;;2.03;;
52029;SDS011;38043;53.224;6.580;2023-07-29T13:30:48;6.63;;;2.10;;
52029;SDS011;38043;53.224;6.580;2023-07-29T13:33:14;4.20;;;1.90;;
52029;SDS011;38043;53.224;6.580;2023-07-29T13:35:39;6.70;;;2.13;;
52029;SDS011;38043;53.224;6.580;2023-07-29T13:38:05;5.95;;;2.10;;
52029;SDS011;38043;53.224;6.580;2023-07-29T13:40:31;6.03;;;1.80;;
52029;SDS011;38043;53.224;6.580;2023-07-29T13:42:56;4.85;;;1.80;;
52029;SDS011;38043;53.224;6.580;2023-07-29T13:45:22;3.50;;;1.90;;
52029;SDS011;38043;53.224;6.580;2023-07-29T13:47:48;6.00;;;2.45;;
52029;SDS011;38043;53.224;6.580;2023-07-29T13:50:15;6.30;;;2.10;;
52029;SDS011;38043;53.224;6.580;2023-07-29T13:52:41;6.40;;;1.85;;
52029;SDS011;38043;53.224;6.580;2023-07-29T13:55:07;4.43;;;1.80;;
52029;SDS011;38043;53.224;6.580;2023-07-29T13:57:33;5.75;;;2.13;;
52029;SDS011;38043;53.224;6.580;2023-07-29T13:59:58;3.80;;;1.85;;
52029;SDS011;38043;53.224;6.580;2023-07-29T14:02:24;5.30;;;2.13;;
52029;SDS011;38043;53.224;6.580;2023-07-29T14:04:56;7.10;;;2.42;;
52029;SDS011;38043;53.224;6.580;2023-07-29T14:07:22;7.15;;;2.70;;
52029;SDS011;38043;53.224;6.580;2023-07-29T14:09:48;6.03;;;2.10;;
52029;SDS011;38043;53.224;6.580;2023-07-29T14:12:13;8.07;;;2.30;;
52029;SDS011;38043;53.224;6.580;2023-07-29T14:14:42;4.32;;;1.80;;
52029;SDS011;38043;53.224;6.580;2023-07-29T14:17:08;9.90;;;2.60;;
52029;SDS011;38043;53.224;6.580;2023-07-29T14:19:34;6.50;;;2.20;;
52029;SDS011;38043;53.224;6.580;2023-07-29T14:22:01;7.03;;;2.20;;
52029;SDS011;38043;53.224;6.580;2023-07-29T14:24:26;12.93;;;2.72;;
52029;SDS011;38043;53.224;6.580;2023-07-29T14:26:52;4.18;;;2.15;;
52029;SDS011;38043;53.224;6.580;2023-07-29T14:29:17;7.97;;;2.70;;
52029;SDS011;38043;53.224;6.580;2023-07-29T14:31:43;6.93;;;2.30;;
52029;SDS011;38043;53.224;6.580;2023-07-29T14:34:09;7.25;;;2.33;;
52029;SDS011;38043;53.224;6.580;2023-07-29T14:36:35;6.63;;;2.15;;
52029;SDS011;38043;53.224;6.580;2023-07-29T14:39:01;8.18;;;3.08;;
52029;SDS011;38043;53.224;6.580;2023-07-29T14:41:27;5.00;;;1.90;;
52029;SDS011;38043;53.224;6.580;2023-07-29T14:43:52;5.85;;;2.20;;
52029;SDS011;38043;53.224;6.580;2023-07-29T14:46:18;7.05;;;2.47;;
52029;SDS011;38043;53.224;6.580;2023-07-29T14:48:44;5.43;;;2.13;;
52029;SDS011;38043;53.224;6.580;2023-07-29T14:51:10;4.28;;;2.05;;
52029;SDS011;38043;53.224;6.580;2023-07-29T14:53:36;5.55;;;2.15;;
52029;SDS011;38043;53.224;6.580;2023-07-29T14:56:01;5.82;;;2.20;;
52029;SDS011;38043;53.224;6.580;2023-07-29T14:58:27;9.57;;;2.30;;
52029;SDS011;38043;53.224;6.580;2023-07-29T15:00:53;5.53;;;1.90;;
52029;SDS011;38043;53.224;6.580;2023-07-29T15:03:18;3.50;;;1.73;;
52029;SDS011;38043;53.224;6.580;2023-07-29T15:05:44;7.43;;;2.30;;
52029;SDS011;38043;53.224;6.580;2023-07-29T15:08:09;4.03;;;2.03;;
52029;SDS011;38043;53.224;6.580;2023-07-29T15:10:35;4.40;;;2.10;;
52029;SDS011;38043;53.224;6.580;2023-07-29T15:13:01;4.93;;;2.25;;
52029;SDS011;38043;53.224;6.580;2023-07-29T15:15:27;9.70;;;2.20;;
52029;SDS011;38043;53.224;6.580;2023-07-29T15:17:53;4.00;;;1.90;;